Time;durP1;ratioP1;P1;durP2;ratioP2;P2;SDS_P1;SDS_P2;PMS_P1;PMS_P2;Temp;Humidity;BMP_temperature;BMP_pressure;BME280_temperature;BME280_humidity;BME280_pressure;Samples;Min_cycle;Max_cycle;Signal;HPM_P1;HPM_P2
2023/09/10 00:00:22;;;;;;;5.57;3.00;;;;;;;12.04;100.00;99774.41;5180731;27;20069;-57
2023/09/10 00:02:48;;;;;;;4.20;2.85;;;;;;;12.04;100.00;99783.44;5180462;27;20068;-59
2023/09/10 00:05:14;;;;;;;8.38;3.05;;;;;;;12.00;100.00;99788.84;5180639;27;20042;-55
2023/09/10 00:07:41;;;;;;;3.85;2.90;;;;;;;11.98;100.00;99796.66;5180185;27;20084;-57
2023/09/10 00:10:08;;;;;;;4.40;2.60;;;;;;;11.98;100.00;99813.13;5180637;27;20413;-54
2023/09/10 00:12:34;;;;;;;7.60;2.85;;;;;;;11.98;100.00;99840.59;5180292;27;20133;-54
2023/09/10 00:15:00;;;;;;;4.63;3.03;;;;;;;11.92;100.00;99844.78;5180370;27;20142;-58
2023/09/10 00:17:26;;;;;;;7.55;3.33;;;;;;;11.89;100.00;99842.75;5180662;27;20318;-58
2023/09/10 00:19:52;;;;;;;5.05;3.10;;;;;;;11.90;100.00;99857.31;5180175;27;20129;-58
2023/09/10 00:22:18;;;;;;;4.82;3.00;;;;;;;11.93;100.00;99862.09;5180364;27;20343;-55
2023/09/10 00:24:44;;;;;;;9.60;3.20;;;;;;;11.88;100.00;99868.63;5180090;27;20134;-54
2023/09/10 00:27:10;;;;;;;5.25;3.10;;;;;;;11.86;100.00;99870.97;5180385;27;20284;-54
2023/09/10 00:29:36;;;;;;;7.47;3.25;;;;;;;11.82;100.00;99881.00;5179868;27;20057;-54
2023/09/10 00:32:02;;;;;;;6.03;3.13;;;;;;;11.72;100.00;99900.78;5180291;27;20092;-56
2023/09/10 00:34:30;;;;;;;4.78;3.25;;;;;;;11.70;100.00;99947.84;5179832;27;20085;-58
2023/09/10 00:36:56;;;;;;;4.43;3.13;;;;;;;11.67;100.00;99950.50;5180263;27;20050;-57
2023/09/10 00:39:22;;;;;;;6.70;3.22;;;;;;;11.67;100.00;99964.22;5179658;27;20061;-56
2023/09/10 00:41:49;;;;;;;7.85;3.42;;;;;;;11.71;100.00;99973.34;5179587;27;20137;-57
2023/09/10 00:44:15;;;;;;;4.18;3.25;;;;;;;11.69;100.00;99992.13;5179920;27;20133;-54
2023/09/10 00:46:41;;;;;;;7.13;3.00;;;;;;;11.63;100.00;99986.09;5179570;27;20106;-54
2023/09/10 00:49:07;;;;;;;5.97;3.28;;;;;;;11.63;100.00;99988.84;5179740;27;20137;-57
2023/09/10 00:51:33;;;;;;;6.85;3.45;;;;;;;11.67;100.00;100016.41;5179602;27;20084;-57
2023/09/10 00:54:00;;;;;;;8.40;3.33;;;;;;;11.63;100.00;100010.00;5179743;27;20390;-58
2023/09/10 00:56:26;;;;;;;5.82;3.50;;;;;;;11.65;100.00;100018.72;5179657;27;20192;-57
2023/09/10 00:58:53;;;;;;;7.15;3.17;;;;;;;11.55;100.00;100020.81;5179715;27;20062;-54
2023/09/10 01:01:19;;;;;;;7.15;3.80;;;;;;;11.60;100.00;100040.94;5179740;27;20054;-59
2023/09/10 01:03:45;;;;;;;10.85;3.92;;;;;;;11.52;100.00;100042.66;5179762;27;20048;-55
2023/09/10 01:06:11;;;;;;;6.18;3.35;;;;;;;11.48;100.00;100047.28;5179209;27;20054;-58
2023/09/10 01:08:37;;;;;;;7.30;3.38;;;;;;;11.41;100.00;100083.56;5179743;27;20057;-57
2023/09/10 01:11:08;;;;;;;9.77;3.45;;;;;;;11.40;100.00;100109.44;5178618;27;20047;-57
2023/09/10 01:13:41;;;;;;;4.43;3.38;;;;;;;11.36;100.00;100107.69;5179471;27;20110;-60
2023/09/10 01:16:16;;;;;;;5.75;3.55;;;;;;;11.32;100.00;100116.63;5179484;27;20060;-57
2023/09/10 01:18:46;;;;;;;11.27;3.72;;;;;;;11.34;100.00;100141.00;5179271;27;20042;-56
2023/09/10 01:21:48;;;;;;;8.63;3.20;;;;;;;11.24;100.00;100147.78;5179469;27;20315;-58
2023/09/10 01:24:24;;;;;;;4.30;3.10;;;;;;;11.29;100.00;100152.22;5161743;27;20057;-59
2023/09/10 01:26:57;;;;;;;5.63;3.45;;;;;;;11.23;100.00;100170.88;5179282;27;20137;-58
2023/09/10 01:29:23;;;;;;;5.22;3.05;;;;;;;11.21;100.00;100151.19;5179001;27;20419;-58
2023/09/10 01:31:52;;;;;;;5.90;3.60;;;;;;;11.24;100.00;100156.00;5179442;27;20067;-58
2023/09/10 01:34:22;;;;;;;6.80;3.58;;;;;;;11.25;100.00;100160.34;5179023;27;20049;-58
2023/09/10 01:36:53;;;;;;;7.72;3.45;;;;;;;11.26;100.00;100161.97;5178917;27;20411;-58
2023/09/10 01:39:25;;;;;;;6.00;3.08;;;;;;;11.26;100.00;100163.88;5179177;27;20149;-54
2023/09/10 01:41:51;;;;;;;17.92;4.90;;;;;;;11.29;100.00;100168.69;5178884;27;20434;-57
2023/09/10 01:44:20;;;;;;;7.53;3.70;;;;;;;11.30;100.00;100164.81;5179242;27;20133;-58
2023/09/10 01:46:46;;;;;;;7.45;2.92;;;;;;;11.31;100.00;100167.19;5178812;27;20384;-58
2023/09/10 01:49:12;;;;;;;9.85;3.60;;;;;;;11.23;100.00;100148.94;5179180;27;20042;-59
2023/09/10 01:51:39;;;;;;;6.63;3.78;;;;;;;11.25;100.00;100157.59;5178900;27;20118;-59
2023/09/10 01:54:05;;;;;;;7.95;3.47;;;;;;;11.21;100.00;100162.19;5178690;27;20046;-59
2023/09/10 01:56:31;;;;;;;6.72;3.92;;;;;;;11.20;100.00;100171.56;5178676;27;20103;-60
2023/09/10 01:58:57;;;;;;;7.50;3.75;;;;;;;11.20;100.00;100165.28;5178800;27;20142;-60
2023/09/10 02:01:24;;;;;;;7.65;3.78;;;;;;;11.17;100.00;100175.00;5178907;27;20061;-59
2023/09/10 02:03:50;;;;;;;5.35;3.35;;;;;;;11.20;100.00;100173.50;5178691;27;20342;-59
2023/09/10 02:06:15;;;;;;;6.35;3.78;;;;;;;11.15;100.00;100180.03;5179061;27;20082;-59
2023/09/10 02:08:41;;;;;;;7.72;4.18;;;;;;;11.15;100.00;100181.97;5178487;27;20050;-58
2023/09/10 02:11:07;;;;;;;6.78;3.75;;;;;;;11.15;100.00;100174.53;5178763;27;20058;-56
2023/09/10 02:13:33;;;;;;;7.53;3.75;;;;;;;11.13;100.00;100178.75;5178425;27;20431;-54
2023/09/10 02:15:59;;;;;;;7.88;4.30;;;;;;;11.12;100.00;100188.94;5178886;27;20050;-55
2023/09/10 02:18:28;;;;;;;7.07;3.95;;;;;;;11.12;100.00;100182.66;5178308;27;20118;-57
2023/09/10 02:20:54;;;;;;;10.13;3.47;;;;;;;11.14;100.00;100183.91;5178559;27;20106;-54
2023/09/10 02:23:20;;;;;;;8.20;3.97;;;;;;;11.10;100.00;100174.78;5179403;27;20054;-53
2023/09/10 02:25:46;;;;;;;9.27;4.10;;;;;;;11.09;100.00;100173.16;5181947;27;20061;-57
2023/09/10 02:28:12;;;;;;;20.60;5.35;;;;;;;11.07;100.00;100156.25;5182018;27;20404;-55
2023/09/10 02:30:38;;;;;;;9.02;3.50;;;;;;;11.03;100.00;100163.56;5181959;27;20143;-53
2023/09/10 02:33:06;;;;;;;6.45;3.75;;;;;;;10.98;100.00;100163.78;5182165;27;20129;-57
2023/09/10 02:35:33;;;;;;;6.80;3.53;;;;;;;10.99;100.00;100173.63;5181771;27;20403;-59
2023/09/10 02:37:58;;;;;;;10.82;4.75;;;;;;;10.93;100.00;100192.28;5182042;27;20350;-58
2023/09/10 02:40:24;;;;;;;11.75;4.72;;;;;;;10.94;100.00;100182.09;5181747;27;20085;-58
2023/09/10 02:42:50;;;;;;;9.82;4.13;;;;;;;10.88;100.00;100188.94;5182086;27;20092;-58
2023/09/10 02:45:16;;;;;;;5.65;3.88;;;;;;;10.92;100.00;100200.81;5181570;27;20327;-58
2023/09/10 02:47:42;;;;;;;12.52;4.15;;;;;;;10.90;100.00;100197.63;5182081;27;20129;-56
2023/09/10 02:50:09;;;;;;;9.35;3.70;;;;;;;10.88;100.00;100210.88;5181474;27;20050;-53
2023/09/10 02:52:36;;;;;;;12.25;4.00;;;;;;;10.80;100.00;100210.66;5181830;27;20427;-58
2023/09/10 02:55:02;;;;;;;6.93;3.85;;;;;;;10.80;100.00;100212.59;5181559;27;20149;-56
2023/09/10 02:57:28;;;;;;;12.25;4.75;;;;;;;10.83;100.00;100220.16;5181614;27;20141;-56
2023/09/10 02:59:54;;;;;;;12.38;5.22;;;;;;;10.76;100.00;100211.66;5181740;27;20133;-54
2023/09/10 03:02:22;;;;;;;15.25;4.65;;;;;;;10.77;100.00;100207.78;5181451;27;20391;-57
2023/09/10 03:04:48;;;;;;;8.52;3.70;;;;;;;10.76;100.00;100223.44;5181504;27;20454;-55
2023/09/10 03:07:14;;;;;;;8.00;3.60;;;;;;;10.73;100.00;100223.31;5181240;27;20182;-58
2023/09/10 03:09:40;;;;;;;14.00;5.38;;;;;;;10.70;100.00;100224.81;5181509;27;20046;-59
2023/09/10 03:12:19;;;;;;;12.93;4.45;;;;;;;10.65;100.00;100227.75;5181261;27;20064;-56
2023/09/10 03:14:45;;;;;;;13.48;4.15;;;;;;;10.70;100.00;100234.97;5181831;27;20061;-59
2023/09/10 03:17:12;;;;;;;10.15;4.88;;;;;;;10.68;100.00;100240.78;5181363;27;20050;-59
2023/09/10 03:19:38;;;;;;;17.13;5.25;;;;;;;10.64;100.00;100248.09;5181223;27;20050;-56
2023/09/10 03:22:04;;;;;;;10.75;4.18;;;;;;;10.66;100.00;100243.06;5181101;27;20426;-58
2023/09/10 03:24:30;;;;;;;12.30;4.78;;;;;;;10.64;100.00;100242.63;5181347;27;20115;-58
2023/09/10 03:26:56;;;;;;;9.52;4.20;;;;;;;10.66;100.00;100245.81;5181478;27;20056;-57
2023/09/10 03:29:22;;;;;;;12.77;4.35;;;;;;;10.64;100.00;100239.06;5181057;27;20046;-59
2023/09/10 03:31:48;;;;;;;21.67;5.38;;;;;;;10.65;100.00;100237.94;5181130;27;20126;-56
2023/09/10 03:34:14;;;;;;;8.45;4.18;;;;;;;10.64;100.00;100248.09;5180520;27;20077;-55
2023/09/10 03:36:40;;;;;;;8.50;4.22;;;;;;;10.61;100.00;100237.81;5181193;27;20042;-56
2023/09/10 03:39:06;;;;;;;10.30;4.35;;;;;;;10.58;100.00;100241.22;5180650;27;20078;-53
2023/09/10 03:41:32;;;;;;;15.15;5.07;;;;;;;10.60;100.00;100230.72;5181220;27;20057;-53
2023/09/10 03:43:59;;;;;;;10.20;4.57;;;;;;;10.54;100.00;100224.66;5180588;27;20042;-56
2023/09/10 03:46:25;;;;;;;9.70;4.53;;;;;;;10.59;100.00;100231.84;5180845;27;20046;-55
2023/09/10 03:48:51;;;;;;;14.80;5.25;;;;;;;10.61;100.00;100224.09;5180604;27;20426;-56
2023/09/10 03:51:17;;;;;;;10.32;4.35;;;;;;;10.60;100.00;100226.03;5180755;27;20145;-58
2023/09/10 03:53:43;;;;;;;12.27;4.82;;;;;;;10.65;100.00;100222.28;5180798;27;20042;-56
2023/09/10 03:56:09;;;;;;;10.40;4.55;;;;;;;10.66;100.00;100206.63;5180596;27;20149;-57
2023/09/10 03:58:34;;;;;;;8.63;4.32;;;;;;;10.65;100.00;100199.53;5180898;27;20357;-54
2023/09/10 04:01:01;;;;;;;10.52;4.57;;;;;;;10.70;100.00;100199.34;5180628;27;20046;-57
2023/09/10 04:03:27;;;;;;;10.77;4.28;;;;;;;10.74;100.00;100197.50;5180798;27;20137;-54
2023/09/10 04:05:53;;;;;;;8.13;4.60;;;;;;;10.80;100.00;100190.66;5180226;27;20372;-52
2023/09/10 04:08:19;;;;;;;18.60;4.72;;;;;;;10.87;100.00;100166.19;5180710;27;20425;-57
2023/09/10 04:10:45;;;;;;;7.50;4.20;;;;;;;11.24;100.00;100147.78;5180249;27;20050;-58
2023/09/10 04:13:11;;;;;;;8.52;4.60;;;;;;;11.86;100.00;100035.81;5180652;27;20046;-58
2023/09/10 04:15:37;;;;;;;10.00;4.45;;;;;;;12.18;100.00;99849.69;5180083;27;20421;-55
2023/09/10 04:18:05;;;;;;;14.18;5.47;;;;;;;12.67;100.00;99563.09;5180312;27;20197;-54
2023/09/10 04:20:31;;;;;;;16.13;5.53;;;;;;;13.26;100.00;99276.44;5180434;27;20057;-58
2023/09/10 04:22:57;;;;;;;12.60;4.82;;;;;;;13.54;100.00;99047.28;5180232;27;20072;-55
2023/09/10 04:25:23;;;;;;;10.82;5.03;;;;;;;14.02;100.00;98958.84;5180197;27;20054;-54
2023/09/10 04:27:49;;;;;;;6.40;4.43;;;;;;;14.29;100.00;98926.13;5179953;27;20395;-54
2023/09/10 04:30:15;;;;;;;17.33;5.50;;;;;;;14.73;100.00;98947.00;5180329;27;20050;-58
2023/09/10 04:32:41;;;;;;;10.05;4.88;;;;;;;14.88;100.00;98983.63;5179947;27;20103;-58
2023/09/10 04:35:08;;;;;;;13.77;5.50;;;;;;;15.40;100.00;99028.03;5180243;27;20054;-58
2023/09/10 04:37:37;;;;;;;12.10;5.43;;;;;;;15.66;100.00;99091.13;5179864;27;20065;-56
2023/09/10 04:40:05;;;;;;;11.35;4.90;;;;;;;16.20;100.00;99151.69;5180259;27;20053;-59
2023/09/10 04:42:31;;;;;;;10.27;5.10;;;;;;;16.11;100.00;99185.31;5179717;27;20046;-57
2023/09/10 04:44:57;;;;;;;20.02;6.20;;;;;;;16.30;100.00;99238.59;5179858;27;20053;-61
2023/09/10 04:47:23;;;;;;;8.75;5.13;;;;;;;16.59;100.00;99250.28;5178738;27;20422;-59
2023/09/10 04:49:49;;;;;;;9.90;4.97;;;;;;;17.10;100.00;99301.47;5179831;27;20082;-60
2023/09/10 04:52:15;;;;;;;10.10;7.20;;;;;;;17.39;100.00;99299.28;5179833;27;20046;-58
2023/09/10 04:54:42;;;;;;;8.60;5.35;;;;;;;17.52;100.00;99371.63;5179426;27;20572;-58
2023/09/10 04:57:08;;;;;;;13.82;6.00;;;;;;;17.83;100.00;99381.75;5179864;27;20129;-59
2023/09/10 04:59:34;;;;;;;17.30;6.05;;;;;;;17.96;100.00;99407.00;5179300;27;20077;-60
2023/09/10 05:02:00;;;;;;;12.10;7.65;;;;;;;18.40;100.00;99416.50;5179617;27;20046;-58
2023/09/10 05:04:26;;;;;;;10.48;5.57;;;;;;;18.53;100.00;99459.22;5179256;27;20419;-54
2023/09/10 05:06:52;;;;;;;11.05;4.80;;;;;;;19.05;100.00;99472.16;5179751;27;20098;-57
2023/09/10 05:09:18;;;;;;;12.00;5.28;;;;;;;19.09;100.00;99477.69;5179261;27;20054;-60
2023/09/10 05:11:44;;;;;;;16.13;9.02;;;;;;;19.44;100.00;99490.38;5179742;27;20057;-56
2023/09/10 05:14:10;;;;;;;12.95;5.45;;;;;;;19.37;100.00;99505.13;5179155;27;20054;-60
2023/09/10 05:16:36;;;;;;;8.95;4.55;;;;;;;19.67;100.00;99512.72;5179443;27;20137;-58
2023/09/10 05:19:02;;;;;;;8.15;4.85;;;;;;;20.04;100.00;99519.34;5179562;27;20073;-58
2023/09/10 05:21:28;;;;;;;7.72;4.60;;;;;;;20.21;100.00;99526.63;5179241;27;20335;-56
2023/09/10 05:23:54;;;;;;;6.90;4.88;;;;;;;20.59;100.00;99545.97;5179209;27;20403;-55
2023/09/10 05:26:22;;;;;;;14.68;5.30;;;;;;;20.63;100.00;99537.56;5179070;27;20061;-57
2023/09/10 05:28:48;;;;;;;11.25;5.40;;;;;;;21.00;100.00;99555.22;5179452;27;20176;-55
2023/09/10 05:31:14;;;;;;;13.70;4.97;;;;;;;21.29;100.00;99552.66;5178922;27;20078;-56
2023/09/10 05:33:40;;;;;;;16.05;8.02;;;;;;;21.61;100.00;99566.00;5179181;27;20141;-56
2023/09/10 05:36:06;;;;;;;13.57;5.53;;;;;;;21.66;100.00;99573.06;5178941;27;20061;-57
2023/09/10 05:38:32;;;;;;;10.85;5.07;;;;;;;21.78;100.00;99581.56;5179272;27;20050;-53
2023/09/10 05:41:01;;;;;;;12.15;4.90;;;;;;;21.89;100.00;99574.97;5178728;27;20050;-54
2023/09/10 05:43:29;;;;;;;18.05;5.10;;;;;;;22.28;100.00;99580.50;5178912;27;20049;-58
2023/09/10 05:45:56;;;;;;;14.13;4.55;;;;;;;22.24;100.00;99588.16;5178755;27;20388;-56
2023/09/10 05:48:22;;;;;;;8.00;4.63;;;;;;;22.46;100.00;99588.47;5178704;27;20483;-58
2023/09/10 05:50:48;;;;;;;12.90;4.25;;;;;;;22.90;100.00;99588.19;5178879;27;20042;-54
2023/09/10 05:53:14;;;;;;;16.60;6.25;;;;;;;23.22;100.00;99595.75;5178716;27;20046;-56
2023/09/10 05:55:41;;;;;;;15.38;6.15;;;;;;;23.61;100.00;99593.88;5178589;27;20459;-53
2023/09/10 05:58:07;;;;;;;14.73;4.75;;;;;;;23.71;100.00;99607.59;5180650;27;20118;-57
2023/09/10 06:00:33;;;;;;;13.43;4.68;;;;;;;23.98;100.00;99616.84;5182629;27;20356;-55
2023/09/10 06:02:59;;;;;;;11.43;4.43;;;;;;;23.97;100.00;99618.09;5182235;27;20088;-52
2023/09/10 06:05:25;;;;;;;10.98;4.68;;;;;;;24.15;100.00;99609.91;5182608;27;20630;-56
2023/09/10 06:07:51;;;;;;;13.13;4.28;;;;;;;24.42;100.00;99615.91;5181930;27;20046;-58
2023/09/10 06:10:17;;;;;;;8.43;3.97;;;;;;;24.55;100.00;99617.91;5182039;27;20095;-58
2023/09/10 06:12:43;;;;;;;19.80;6.35;;;;;;;25.08;98.17;99623.75;5182285;27;20054;-59
2023/09/10 06:15:09;;;;;;;15.32;6.25;;;;;;;24.92;94.98;99627.50;5182252;27;20054;-59
2023/09/10 06:17:36;;;;;;;17.08;6.03;;;;;;;25.13;96.34;99619.66;5182248;27;20050;-56
2023/09/10 06:20:04;;;;;;;9.88;5.07;;;;;;;25.48;94.64;99623.22;5182190;27;20191;-58
2023/09/10 06:22:30;;;;;;;10.50;3.42;;;;;;;25.66;88.33;99630.97;5182296;27;20125;-60
2023/09/10 06:24:56;;;;;;;9.52;4.18;;;;;;;25.68;88.23;99632.09;5181876;27;20050;-56
2023/09/10 06:27:21;;;;;;;6.20;2.95;;;;;;;25.85;84.64;99641.13;5182232;27;20058;-55
2023/09/10 06:29:47;;;;;;;10.50;4.32;;;;;;;26.27;82.30;99638.72;5181921;27;20376;-57
2023/09/10 06:32:13;;;;;;;8.65;3.97;;;;;;;26.29;82.27;99641.06;5182154;27;20425;-57
2023/09/10 06:34:40;;;;;;;7.97;4.30;;;;;;;26.59;81.22;99639.53;5181806;27;20111;-58
2023/09/10 06:37:06;;;;;;;9.75;3.55;;;;;;;26.55;77.78;99641.69;5182276;27;20137;-57
2023/09/10 06:39:38;;;;;;;10.85;3.70;;;;;;;26.55;80.34;99647.31;5181803;27;20133;-57
2023/09/10 06:42:04;;;;;;;7.20;3.67;;;;;;;26.95;77.38;99650.06;5181802;27;20437;-57
2023/09/10 06:44:30;;;;;;;5.00;3.10;;;;;;;26.95;76.26;99652.13;5181803;27;20042;-59
2023/09/10 06:46:56;;;;;;;10.20;3.60;;;;;;;27.02;73.60;99651.03;5181552;27;20088;-58
2023/09/10 06:49:22;;;;;;;10.85;3.33;;;;;;;27.23;72.44;99653.00;5181808;27;20403;-57
2023/09/10 06:51:48;;;;;;;7.03;2.78;;;;;;;27.58;71.59;99650.63;5181446;27;20046;-55
2023/09/10 06:54:14;;;;;;;4.53;2.95;;;;;;;27.27;70.46;99650.78;5181638;27;20050;-56
2023/09/10 06:56:40;;;;;;;4.45;3.15;;;;;;;27.64;69.14;99651.56;5181203;27;20449;-57
2023/09/10 06:59:06;;;;;;;7.32;2.97;;;;;;;27.58;66.70;99653.44;5181504;27;20085;-55
2023/09/10 07:01:32;;;;;;;4.70;2.65;;;;;;;27.20;67.61;99646.25;5181219;27;20092;-56
2023/09/10 07:03:58;;;;;;;6.50;2.70;;;;;;;27.96;66.25;99643.75;5181721;27;20082;-55
2023/09/10 07:06:24;;;;;;;8.10;2.95;;;;;;;28.17;66.19;99638.38;5181105;27;20046;-57
2023/09/10 07:08:50;;;;;;;6.35;2.88;;;;;;;28.24;65.41;99647.28;5180262;27;20137;-60
2023/09/10 07:11:16;;;;;;;6.95;3.17;;;;;;;28.08;66.19;99647.63;5181403;27;20137;-57
2023/09/10 07:13:42;;;;;;;10.77;3.10;;;;;;;28.23;66.65;99639.31;5181523;27;20060;-58
2023/09/10 07:16:08;;;;;;;8.20;3.10;;;;;;;28.40;64.73;99646.16;5181233;27;20064;-59
2023/09/10 07:18:34;;;;;;;7.47;3.00;;;;;;;28.33;64.21;99643.66;5181262;27;20105;-58
2023/09/10 07:21:00;;;;;;;6.47;3.08;;;;;;;28.01;63.86;99653.59;5181478;27;20136;-59
2023/09/10 07:23:29;;;;;;;6.88;2.80;;;;;;;28.65;63.55;99646.97;5181058;27;20093;-55
2023/09/10 07:25:56;;;;;;;5.32;2.85;;;;;;;28.48;62.50;99650.19;5181055;27;20272;-57
2023/09/10 07:28:22;;;;;;;8.32;3.90;;;;;;;28.22;62.80;99643.34;5180580;27;20045;-54
2023/09/10 07:30:48;;;;;;;7.18;2.88;;;;;;;28.80;61.85;99640.16;5181071;27;20187;-57
2023/09/10 07:33:13;;;;;;;5.28;2.78;;;;;;;28.58;62.38;99639.66;5180776;27;20061;-58
2023/09/10 07:35:39;;;;;;;7.93;3.47;;;;;;;27.16;63.43;99642.81;5181260;27;20145;-58
2023/09/10 07:38:05;;;;;;;7.03;2.70;;;;;;;28.18;61.74;99646.34;5180659;27;20145;-59
2023/09/10 07:40:31;;;;;;;5.95;3.58;;;;;;;28.69;61.62;99637.09;5180917;27;20137;-60
2023/09/10 07:42:59;;;;;;;6.22;2.97;;;;;;;28.62;62.07;99637.44;5180945;27;20068;-59
2023/09/10 07:45:25;;;;;;;6.95;3.20;;;;;;;27.93;62.33;99644.69;5180577;27;20061;-60
2023/09/10 07:47:50;;;;;;;7.47;3.05;;;;;;;28.21;62.24;99644.63;5180889;27;20057;-57
2023/09/10 07:50:16;;;;;;;6.20;3.60;;;;;;;28.15;62.51;99642.44;5180504;27;20050;-59
2023/09/10 07:52:42;;;;;;;8.18;3.22;;;;;;;28.97;61.49;99640.53;5180876;27;20114;-57
2023/09/10 07:55:09;;;;;;;8.00;3.60;;;;;;;29.02;60.58;99637.09;5180572;27;20118;-59
2023/09/10 07:57:35;;;;;;;11.75;3.33;;;;;;;28.90;61.60;99643.72;5180838;27;20042;-57
2023/09/10 08:00:01;;;;;;;9.68;3.42;;;;;;;29.02;60.80;99639.09;5180401;27;20070;-57
2023/09/10 08:02:29;;;;;;;5.40;2.42;;;;;;;28.77;59.15;99645.97;5180797;27;20053;-58
2023/09/10 08:04:55;;;;;;;6.47;3.17;;;;;;;28.85;58.39;99638.72;5180421;27;20050;-60
2023/09/10 08:07:21;;;;;;;6.03;3.08;;;;;;;28.64;60.46;99642.59;5180673;27;20133;-58
2023/09/10 08:09:47;;;;;;;7.80;2.90;;;;;;;29.03;58.77;99640.69;5180309;27;20089;-57
2023/09/10 08:12:13;;;;;;;6.18;2.95;;;;;;;28.94;59.14;99641.50;5180149;27;20136;-58
2023/09/10 08:14:40;;;;;;;11.52;3.22;;;;;;;28.09;60.66;99632.28;5180688;27;20046;-57
2023/09/10 08:17:06;;;;;;;7.53;3.40;;;;;;;29.24;59.13;99636.75;5180106;27;20420;-59
2023/09/10 08:19:32;;;;;;;9.75;4.20;;;;;;;29.61;58.69;99630.84;5180650;27;20042;-57
2023/09/10 08:21:58;;;;;;;6.32;2.67;;;;;;;29.14;56.82;99628.84;5178761;27;20144;-56
2023/09/10 08:24:24;;;;;;;4.47;2.30;;;;;;;29.17;57.56;99627.88;5180366;27;20097;-58
2023/09/10 08:26:51;;;;;;;4.70;2.17;;;;;;;28.92;56.22;99632.72;5180119;27;20092;-58
2023/09/10 08:29:17;;;;;;;4.57;1.88;;;;;;;29.05;57.03;99629.69;5180369;27;20042;-54
2023/09/10 08:31:43;;;;;;;3.58;2.13;;;;;;;28.97;56.25;99628.47;5179856;27;20353;-57
2023/09/10 08:34:09;;;;;;;4.40;2.30;;;;;;;29.43;56.42;99625.34;5180314;27;20057;-55
2023/09/10 08:36:35;;;;;;;7.18;2.13;;;;;;;28.17;58.48;99621.47;5179773;27;20141;-56
2023/09/10 08:39:02;;;;;;;5.10;2.08;;;;;;;29.23;56.84;99615.44;5180147;27;20052;-57
2023/09/10 08:41:34;;;;;;;3.55;2.00;;;;;;;27.67;58.54;99618.88;5180080;27;20065;-53
2023/09/10 08:44:01;;;;;;;2.53;1.55;;;;;;;26.86;59.32;99619.13;5179641;27;20201;-59
2023/09/10 08:46:30;;;;;;;5.57;2.33;;;;;;;27.64;59.05;99622.63;5179751;27;20499;-53
2023/09/10 08:48:56;;;;;;;2.97;1.58;;;;;;;28.08;57.84;99617.41;5179758;27;20050;-56
2023/09/10 08:51:23;;;;;;;3.60;1.80;;;;;;;28.28;57.91;99610.44;5179962;27;20054;-56
2023/09/10 08:53:52;;;;;;;4.85;1.90;;;;;;;28.63;56.91;99610.03;5179593;27;20060;-58
2023/09/10 08:56:18;;;;;;;3.40;1.83;;;;;;;28.70;57.05;99609.66;5179978;27;20050;-59
2023/09/10 08:58:48;;;;;;;4.35;2.20;;;;;;;28.54;57.22;99605.19;5179718;27;20050;-59
2023/09/10 09:01:15;;;;;;;3.72;1.83;;;;;;;29.11;56.73;99602.34;5179837;27;20042;-58
2023/09/10 09:03:41;;;;;;;3.75;2.10;;;;;;;29.24;55.96;99616.22;5179297;27;20050;-56
2023/09/10 09:06:08;;;;;;;4.10;1.60;;;;;;;28.20;57.47;99593.09;5179474;27;20425;-57
2023/09/10 09:08:36;;;;;;;3.72;1.80;;;;;;;28.66;58.13;99597.75;5179556;27;20048;-55
2023/09/10 09:11:04;;;;;;;2.88;1.92;;;;;;;28.62;57.45;99600.75;5179481;27;20073;-56
2023/09/10 09:13:34;;;;;;;2.80;2.00;;;;;;;28.01;58.42;99595.19;5179629;27;20092;-57
2023/09/10 09:16:02;;;;;;;5.07;2.10;;;;;;;29.25;56.25;99586.72;5179211;27;20464;-54
2023/09/10 09:18:29;;;;;;;3.63;2.00;;;;;;;28.72;56.92;99587.38;5179572;27;20138;-58
2023/09/10 09:20:57;;;;;;;4.30;2.10;;;;;;;29.20;56.46;99588.19;5179136;27;20053;-57
2023/09/10 09:23:29;;;;;;;5.55;2.17;;;;;;;29.44;57.27;99587.34;5179039;27;20046;-56
2023/09/10 09:25:57;;;;;;;7.20;2.70;;;;;;;28.48;58.84;99593.00;5178944;27;20046;-54
2023/09/10 09:28:24;;;;;;;4.60;2.80;;;;;;;28.92;57.67;99589.59;5178809;27;20343;-59
2023/09/10 09:30:51;;;;;;;4.50;2.97;;;;;;;28.58;58.15;99589.66;5179179;27;20050;-58
2023/09/10 09:33:17;;;;;;;4.03;2.30;;;;;;;28.43;58.36;99600.09;5178603;27;20072;-53
2023/09/10 09:35:44;;;;;;;6.32;2.50;;;;;;;27.95;60.28;99599.13;5179230;27;20404;-53
2023/09/10 09:38:11;;;;;;;5.63;2.58;;;;;;;28.17;58.24;99590.47;5178879;27;20061;-59
2023/09/10 09:40:37;;;;;;;5.05;2.63;;;;;;;28.25;58.69;99592.44;5179015;27;20418;-56
2023/09/10 09:43:06;;;;;;;6.65;2.70;;;;;;;28.55;58.08;99590.59;5178995;27;20323;-57
2023/09/10 09:45:33;;;;;;;5.75;2.85;;;;;;;27.29;60.71;99599.66;5179067;27;20050;-57
2023/09/10 09:47:59;;;;;;;6.07;2.15;;;;;;;27.12;60.58;99599.13;5178805;27;20050;-58
2023/09/10 09:50:25;;;;;;;4.75;2.38;;;;;;;27.17;61.32;99592.94;5179172;27;20046;-56
2023/09/10 09:52:52;;;;;;;4.90;2.28;;;;;;;28.13;61.21;99587.81;5178674;27;20331;-53
2023/09/10 09:55:18;;;;;;;3.47;2.00;;;;;;;28.19;59.09;99587.94;5179073;27;20118;-59
2023/09/10 09:57:46;;;;;;;2.78;2.15;;;;;;;28.02;58.87;99598.78;5178682;27;20050;-58
2023/09/10 10:00:14;;;;;;;4.30;2.65;;;;;;;27.98;59.47;99592.53;5178606;27;20157;-58
2023/09/10 10:02:40;;;;;;;5.47;2.50;;;;;;;27.52;59.55;99589.78;5178660;27;20106;-54
2023/09/10 10:05:08;;;;;;;6.28;2.40;;;;;;;27.63;59.41;99590.09;5178636;27;20137;-53
2023/09/10 10:07:36;;;;;;;7.57;2.42;;;;;;;28.11;59.13;99582.63;5179117;27;20399;-52
2023/09/10 10:10:05;;;;;;;7.28;2.20;;;;;;;27.78;59.95;99590.25;5178398;27;20137;-55
2023/09/10 10:12:31;;;;;;;5.43;2.45;;;;;;;27.63;58.64;99579.63;5178936;27;20057;-55
2023/09/10 10:14:58;;;;;;;2.88;2.10;;;;;;;27.73;58.78;99585.25;5178427;27;20077;-58
2023/09/10 10:17:26;;;;;;;3.08;1.90;;;;;;;26.74;58.93;99589.88;5178797;27;20311;-57
2023/09/10 10:19:52;;;;;;;2.58;1.90;;;;;;;27.39;58.54;99582.31;5178367;27;20046;-55
2023/09/10 10:22:19;;;;;;;3.70;2.22;;;;;;;27.12;58.84;99576.63;5178789;27;20050;-55
2023/09/10 10:24:45;;;;;;;4.32;2.47;;;;;;;27.20;59.69;99575.88;5178577;27;20144;-55
2023/09/10 10:27:13;;;;;;;3.75;2.20;;;;;;;26.56;60.93;99577.78;5178229;27;20046;-56
2023/09/10 10:29:40;;;;;;;4.28;2.33;;;;;;;27.49;59.43;99571.81;5178528;27;20050;-55
2023/09/10 10:32:13;;;;;;;6.53;2.55;;;;;;;27.55;61.29;99563.50;5178207;27;20487;-57
2023/09/10 10:34:47;;;;;;;5.45;2.17;;;;;;;26.83;60.06;99563.03;5178487;27;20054;-57
2023/09/10 10:37:17;;;;;;;6.50;2.42;;;;;;;26.81;60.74;99565.50;5178075;27;20332;-58
2023/09/10 10:39:53;;;;;;;3.22;2.22;;;;;;;27.38;59.04;99557.41;5178445;27;20046;-59
2023/09/10 10:42:29;;;;;;;5.10;2.17;;;;;;;27.36;58.92;99554.31;5178049;27;20152;-55
2023/09/10 10:45:00;;;;;;;5.90;1.92;;;;;;;25.95;61.45;99554.91;5179632;27;20443;-53
2023/09/10 10:47:29;;;;;;;5.10;2.20;;;;;;;26.23;61.07;99547.38;5181656;27;20066;-59
2023/09/10 10:49:57;;;;;;;4.60;2.20;;;;;;;26.28;61.70;99546.75;5181762;27;20050;-54
2023/09/10 10:52:28;;;;;;;4.15;1.88;;;;;;;26.94;62.51;99540.84;5181824;27;20113;-58
2023/09/10 10:54:54;;;;;;;7.18;2.30;;;;;;;26.90;60.13;99545.84;5181589;27;20046;-58
2023/09/10 10:57:21;;;;;;;5.03;1.80;;;;;;;26.26;60.21;99538.03;5181838;27;20137;-53
2023/09/10 10:59:48;;;;;;;4.65;2.00;;;;;;;26.41;60.63;99536.19;5181563;27;20050;-52
2023/09/10 11:02:22;;;;;;;7.00;2.10;;;;;;;26.39;59.42;99535.06;5181766;27;20094;-55
2023/09/10 11:04:56;;;;;;;3.35;2.13;;;;;;;26.49;59.43;99531.88;5181386;27;20042;-53
2023/09/10 11:07:22;;;;;;;5.95;2.08;;;;;;;26.31;59.21;99528.97;5181723;27;20077;-56
2023/09/10 11:09:49;;;;;;;3.22;2.17;;;;;;;25.13;61.68;99524.28;5181396;27;20131;-53
2023/09/10 11:12:15;;;;;;;2.75;1.95;;;;;;;23.81;68.82;99516.13;5181383;27;20210;-57
2023/09/10 11:15:04;;;;;;;6.25;2.00;;;;;;;24.34;68.58;99513.66;5181401;27;20078;-57
2023/09/10 11:17:32;;;;;;;3.42;2.20;;;;;;;24.19;65.66;99515.34;5181068;27;20046;-55
2023/09/10 11:19:58;;;;;;;2.40;2.00;;;;;;;23.69;67.19;99509.31;5181342;27;20099;-57
2023/09/10 11:22:25;;;;;;;4.47;1.95;;;;;;;23.23;71.41;99505.81;5181057;27;20061;-55